Time;durP1;ratioP1;P1;durP2;ratioP2;P2;SDS_P1;SDS_P2;PMS_P1;PMS_P2;Temp;Humidity;BMP_temperature;BMP_pressure;BME280_temperature;BME280_humidity;BME280_pressure;Samples;Min_cycle;Max_cycle;Signal;HPM_P1;HPM_P2
2022/01/05 00:02:24;;;;;;;11.52;1.55;;;1.50;99.90;;;;;;5012985;28;20045;-80
2022/01/05 00:04:50;;;;;;;12.27;1.70;;;1.60;99.90;;;;;;5012807;28;20153;-81
2022/01/05 00:07:16;;;;;;;11.65;2.30;;;1.60;99.90;;;;;;5012440;28;20121;-80
2022/01/05 00:09:42;;;;;;;14.02;1.50;;;1.60;99.90;;;;;;5013175;28;20042;-81
2022/01/05 00:12:08;;;;;;;8.48;1.27;;;1.60;99.90;;;;;;5013132;28;20468;-82
2022/01/05 00:14:34;;;;;;;10.30;1.90;;;1.60;99.90;;;;;;5012729;28;20089;-80
2022/01/05 00:17:00;;;;;;;14.68;1.73;;;1.60;99.90;;;;;;5012000;28;20070;-81
2022/01/05 00:19:25;;;;;;;12.05;1.40;;;1.60;99.90;;;;;;5012631;28;20050;-80
2022/01/05 00:21:51;;;;;;;9.30;1.85;;;1.60;99.90;;;;;;5012941;28;20448;-82
2022/01/05 00:24:16;;;;;;;16.50;1.80;;;1.60;99.90;;;;;;5016528;28;20479;-80
2022/01/05 00:26:42;;;;;;;13.38;1.45;;;1.60;99.90;;;;;;5032508;28;20432;-81
2022/01/05 00:29:08;;;;;;;9.60;1.48;;;1.70;99.90;;;;;;5032023;28;20400;-80
2022/01/05 00:31:33;;;;;;;9.75;2.05;;;1.70;99.90;;;;;;5014053;28;20053;-81
2022/01/05 00:33:59;;;;;;;10.00;1.17;;;1.60;99.90;;;;;;5013746;28;20132;-81
2022/01/05 00:36:25;;;;;;;11.50;1.88;;;1.70;99.90;;;;;;5032286;28;20050;-80
2022/01/05 00:38:50;;;;;;;12.88;1.33;;;1.70;99.90;;;;;;5032434;28;20458;-81
2022/01/05 00:41:16;;;;;;;8.10;1.83;;;1.80;99.90;;;;;;5014416;28;20054;-82
2022/01/05 00:43:42;;;;;;;13.57;2.03;;;1.80;99.90;;;;;;5031952;28;20049;-82
2022/01/05 00:46:08;;;;;;;12.73;1.83;;;1.80;99.90;;;;;;5032054;28;20045;-81
2022/01/05 00:48:34;;;;;;;13.93;1.70;;;1.90;99.90;;;;;;5031513;28;20507;-80
2022/01/05 00:51:02;;;;;;;15.13;1.67;;;1.90;99.90;;;;;;5032147;28;20077;-80
2022/01/05 00:53:29;;;;;;;15.60;1.60;;;2.00;99.90;;;;;;5031206;28;20052;-80
2022/01/05 00:55:54;;;;;;;13.82;2.30;;;2.00;99.90;;;;;;5032052;28;20053;-81
2022/01/05 00:58:20;;;;;;;19.15;1.90;;;2.80;99.90;;;;;;5031677;28;20156;-80
2022/01/05 01:00:46;;;;;;;13.32;1.50;;;2.10;99.90;;;;;;5031359;28;20048;-82
2022/01/05 01:03:12;;;;;;;13.88;1.65;;;2.10;99.90;;;;;;5031473;28;20034;-80
2022/01/05 01:05:38;;;;;;;17.13;1.88;;;2.10;99.90;;;;;;5031746;28;20396;-80
2022/01/05 01:08:04;;;;;;;26.90;2.88;;;2.20;99.90;;;;;;5031902;28;20076;-79
2022/01/05 01:10:30;;;;;;;17.23;1.73;;;2.20;99.90;;;;;;5031979;28;20052;-80
2022/01/05 01:12:55;;;;;;;11.85;2.33;;;2.20;99.90;;;;;;5031500;28;20577;-81
2022/01/05 01:15:21;;;;;;;12.27;1.67;;;2.30;99.90;;;;;;5031525;28;20132;-81
2022/01/05 01:17:47;;;;;;;13.00;1.35;;;2.30;99.90;;;;;;5013749;28;20045;-80
2022/01/05 01:20:13;;;;;;;18.48;1.65;;;2.40;99.90;;;;;;5013413;28;20072;-80
2022/01/05 01:22:38;;;;;;;16.17;2.30;;;2.40;99.90;;;;;;5031320;28;20045;-83
2022/01/05 01:25:06;;;;;;;18.40;2.83;;;2.40;99.90;;;;;;5031442;28;20065;-81
2022/01/05 01:27:32;;;;;;;14.55;2.00;;;2.40;99.90;;;;;;5031248;28;20416;-82
2022/01/05 01:29:58;;;;;;;12.75;1.48;;;2.50;99.90;;;;;;5017459;28;20038;-81
2022/01/05 01:32:23;;;;;;;11.65;2.20;;;2.50;99.90;;;;;;5011550;28;20038;-81
2022/01/05 01:34:49;;;;;;;14.80;1.80;;;3.30;99.90;;;;;;5011047;28;20045;-82
2022/01/05 01:37:15;;;;;;;14.68;2.15;;;2.50;99.90;;;;;;5011281;28;20046;-83
2022/01/05 01:39:41;;;;;;;11.07;1.55;;;2.50;99.90;;;;;;5011646;28;20125;-82
2022/01/05 01:42:07;;;;;;;9.07;1.38;;;2.50;99.90;;;;;;5010338;28;20129;-83
2022/01/05 01:44:32;;;;;;;13.63;1.80;;;2.50;99.90;;;;;;5011402;28;20519;-80
2022/01/05 01:46:58;;;;;;;11.57;1.70;;;2.50;99.90;;;;;;5011503;28;20050;-82
2022/01/05 01:49:24;;;;;;;9.45;1.95;;;2.50;99.90;;;;;;5011216;28;20128;-81
2022/01/05 01:51:49;;;;;;;13.70;1.90;;;2.40;99.90;;;;;;5011685;28;20042;-82
2022/01/05 01:54:15;;;;;;;14.68;2.30;;;2.40;99.90;;;;;;5011665;28;20053;-81
2022/01/05 01:56:43;;;;;;;11.07;1.60;;;2.40;99.90;;;;;;5011361;28;20058;-85
2022/01/05 01:59:09;;;;;;;15.73;2.85;;;2.40;99.90;;;;;;5018061;28;20399;-83
2022/01/05 02:01:35;;;;;;;17.05;2.28;;;2.40;99.90;;;;;;5030708;28;20049;-84
2022/01/05 02:04:01;;;;;;;12.10;1.65;;;2.30;99.90;;;;;;4996550;28;20385;-83
2022/01/05 02:06:27;;;;;;;12.80;1.77;;;2.30;99.90;;;;;;5030229;28;20134;-83
2022/01/05 02:08:52;;;;;;;12.25;1.65;;;2.30;99.90;;;;;;5030891;28;20061;-81
2022/01/05 02:11:18;;;;;;;13.35;2.75;;;2.30;99.90;;;;;;5030160;28;20489;-82
2022/01/05 02:13:44;;;;;;;13.43;1.80;;;2.40;99.90;;;;;;5030741;28;20096;-81
2022/01/05 02:16:10;;;;;;;12.02;1.38;;;2.40;99.90;;;;;;5030679;28;20049;-80
2022/01/05 02:21:06;;;;;;;14.13;1.83;;;2.50;99.90;;;;;;5030141;28;20164;-80
2022/01/05 02:23:34;;;;;;;15.85;2.33;;;2.50;99.90;;;;;;5030286;28;20048;-81
2022/01/05 02:26:00;;;;;;;10.60;2.67;;;2.50;99.90;;;;;;5012509;28;20061;-81
2022/01/05 02:28:25;;;;;;;11.30;1.63;;;2.50;99.90;;;;;;5012923;28;20061;-80
2022/01/05 02:30:52;;;;;;;11.32;1.30;;;2.50;99.90;;;;;;5010718;28;20041;-83
2022/01/05 02:33:20;;;;;;;14.77;2.10;;;2.50;99.90;;;;;;5010506;28;20042;-80
2022/01/05 02:35:46;;;;;;;12.00;1.58;;;2.60;99.90;;;;;;5010403;28;20075;-80
2022/01/05 02:38:16;;;;;;;10.38;2.78;;;2.60;99.90;;;;;;5010274;28;20042;-80
2022/01/05 02:40:41;;;;;;;16.77;2.05;;;2.60;99.90;;;;;;5010640;28;20046;-81
2022/01/05 02:43:07;;;;;;;11.57;1.58;;;2.70;99.90;;;;;;5010554;28;20052;-81
2022/01/05 02:45:33;;;;;;;12.65;1.95;;;2.70;99.90;;;;;;5010597;28;20397;-81
2022/01/05 02:47:58;;;;;;;12.70;2.25;;;2.70;99.90;;;;;;5011416;28;20053;-79
2022/01/05 02:50:24;;;;;;;14.18;1.92;;;2.70;99.90;;;;;;5010490;28;20153;-83
2022/01/05 02:52:49;;;;;;;11.98;2.10;;;2.80;99.90;;;;;;5009881;28;20069;-80
2022/01/05 02:55:15;;;;;;;15.85;2.13;;;2.70;99.90;;;;;;5019508;28;20041;-80
2022/01/05 02:57:41;;;;;;;12.52;1.92;;;2.80;99.90;;;;;;5030140;28;20148;-80
2022/01/05 03:00:12;;;;;;;16.30;2.15;;;2.90;99.90;;;;;;5029956;28;20404;-80
2022/01/05 03:02:38;;;;;;;19.13;2.83;;;2.90;99.90;;;;;;5030117;28;20048;-80
2022/01/05 03:05:04;;;;;;;16.08;1.67;;;2.90;99.90;;;;;;5029995;28;20058;-81
2022/01/05 03:07:31;;;;;;;20.75;2.03;;;2.90;99.90;;;;;;5030005;28;20385;-82
2022/01/05 03:09:57;;;;;;;19.70;2.80;;;3.00;99.90;;;;;;5011965;28;20060;-79
2022/01/05 03:12:22;;;;;;;35.72;2.38;;;3.00;99.90;;;;;;5030157;28;20049;-81
2022/01/05 03:14:48;;;;;;;21.10;2.63;;;4.10;99.90;;;;;;5029886;28;20148;-81
2022/01/05 03:17:14;;;;;;;17.85;2.05;;;3.10;99.90;;;;;;5029871;28;20092;-81
2022/01/05 03:19:39;;;;;;;10.15;2.55;;;3.20;99.90;;;;;;5029633;28;20045;-79
2022/01/05 03:22:05;;;;;;;18.92;2.20;;;3.20;99.90;;;;;;5028981;28;20045;-80
2022/01/05 03:24:31;;;;;;;12.80;2.40;;;3.20;99.90;;;;;;5032874;28;20092;-80
2022/01/05 03:26:56;;;;;;;15.88;2.20;;;3.90;99.90;;;;;;5033655;28;20049;-80
2022/01/05 03:29:22;;;;;;;19.23;2.90;;;3.30;99.90;;;;;;4999186;28;20459;-81
2022/01/05 03:31:48;;;;;;;10.82;2.38;;;3.30;99.90;;;;;;5033537;28;20080;-82
2022/01/05 03:34:18;;;;;;;11.82;1.92;;;3.40;99.90;;;;;;5033126;28;20084;-81
2022/01/05 03:36:44;;;;;;;15.65;2.45;;;3.40;99.90;;;;;;5032847;28;20041;-82
2022/01/05 03:39:10;;;;;;;16.58;2.50;;;3.50;99.90;;;;;;5032003;28;20489;-80
2022/01/05 03:41:35;;;;;;;10.07;2.10;;;3.50;99.90;;;;;;5033169;28;20048;-81
2022/01/05 03:44:01;;;;;;;16.35;2.25;;;3.50;99.90;;;;;;5033319;28;20053;-80
2022/01/05 03:46:27;;;;;;;14.57;2.03;;;3.50;99.90;;;;;;5031958;28;20045;-80
2022/01/05 03:48:53;;;;;;;15.60;2.10;;;3.50;99.90;;;;;;5033141;28;20042;-84
2022/01/05 03:51:19;;;;;;;14.00;2.15;;;4.30;99.90;;;;;;5033301;28;20763;-82
2022/01/05 03:53:44;;;;;;;10.52;1.80;;;3.60;99.90;;;;;;5032920;28;20049;-82
2022/01/05 03:56:11;;;;;;;19.38;3.13;;;3.60;99.90;;;;;;5015995;28;20045;-80
2022/01/05 03:58:37;;;;;;;11.15;1.67;;;3.50;99.90;;;;;;5013496;28;20382;-80
2022/01/05 04:01:03;;;;;;;7.78;1.40;;;4.00;99.90;;;;;;5013404;28;20053;-80
2022/01/05 04:03:29;;;;;;;5.97;2.38;;;4.10;99.90;;;;;;5012873;28;20041;-81
2022/01/05 04:05:55;;;;;;;5.80;1.42;;;3.70;99.90;;;;;;5012932;28;20875;-81
2022/01/05 04:08:21;;;;;;;19.48;1.40;;;3.60;99.90;;;;;;5013935;28;20134;-81
2022/01/05 04:10:46;;;;;;;13.85;1.73;;;4.60;99.90;;;;;;5012880;28;20046;-81
2022/01/05 04:13:13;;;;;;;7.78;1.35;;;3.80;99.90;;;;;;5012965;28;20081;-81
2022/01/05 04:15:39;;;;;;;10.77;1.75;;;3.80;99.90;;;;;;5012733;28;20046;-80
2022/01/05 04:18:05;;;;;;;12.75;2.05;;;3.80;99.90;;;;;;4995132;28;20054;-81
2022/01/05 04:20:31;;;;;;;7.65;1.13;;;3.70;99.90;;;;;;5012751;28;20073;-82
2022/01/05 04:22:56;;;;;;;13.15;1.35;;;3.60;99.90;;;;;;5012708;28;20046;-81
2022/01/05 04:25:22;;;;;;;7.20;1.20;;;4.50;99.90;;;;;;5023075;28;20129;-80
2022/01/05 04:27:48;;;;;;;9.82;1.38;;;3.50;99.90;;;;;;4998019;28;20112;-81
2022/01/05 04:30:14;;;;;;;10.48;1.75;;;3.50;99.90;;;;;;5032187;28;20095;-81
2022/01/05 04:32:42;;;;;;;10.23;1.80;;;3.80;99.90;;;;;;5032425;28;20034;-81
2022/01/05 04:35:11;;;;;;;10.88;1.52;;;3.80;99.90;;;;;;5031510;28;20049;-82
2022/01/05 04:37:37;;;;;;;9.55;1.17;;;3.40;99.90;;;;;;5032046;28;20547;-81
2022/01/05 04:40:03;;;;;;;12.00;1.80;;;3.30;99.90;;;;;;5032219;28;20049;-81
2022/01/05 04:42:29;;;;;;;16.90;1.65;;;3.40;99.90;;;;;;5031895;28;20041;-84
2022/01/05 04:44:55;;;;;;;13.57;1.50;;;3.40;99.90;;;;;;5032034;28;20060;-82
2022/01/05 04:47:21;;;;;;;8.25;1.52;;;3.40;99.90;;;;;;5030268;28;20069;-82
2022/01/05 04:49:47;;;;;;;14.00;1.70;;;3.40;99.90;;;;;;5031900;28;20049;-81
2022/01/05 04:52:12;;;;;;;12.00;1.90;;;3.80;99.90;;;;;;5031975;28;20045;-84
2022/01/05 04:54:38;;;;;;;12.68;2.58;;;3.40;99.90;;;;;;5027694;28;20104;-81
2022/01/05 04:57:05;;;;;;;18.15;1.58;;;3.40;99.90;;;;;;5012344;28;20054;-84
2022/01/05 04:59:32;;;;;;;14.05;2.28;;;3.40;99.90;;;;;;5011669;28;20053;-85
2022/01/05 05:01:57;;;;;;;13.10;1.50;;;3.40;99.90;;;;;;5012246;28;20046;-83
2022/01/05 05:04:23;;;;;;;23.30;3.17;;;3.40;99.90;;;;;;5011967;28;20045;-84
2022/01/05 05:06:49;;;;;;;14.25;2.00;;;3.90;99.90;;;;;;4994287;28;20124;-81
2022/01/05 05:09:16;;;;;;;23.17;2.45;;;3.50;99.90;;;;;;5011572;28;20485;-82
2022/01/05 05:11:42;;;;;;;9.95;2.08;;;3.40;99.90;;;;;;5011762;28;20041;-83
2022/01/05 05:14:08;;;;;;;12.73;1.92;;;3.50;99.90;;;;;;5011580;28;20050;-82
2022/01/05 05:16:34;;;;;;;17.92;2.78;;;4.10;99.90;;;;;;5011606;28;20579;-85
2022/01/05 05:19:00;;;;;;;9.48;2.08;;;3.60;99.90;;;;;;4994276;28;20072;-83
2022/01/05 05:21:26;;;;;;;14.68;2.15;;;3.90;99.90;;;;;;5011639;28;20054;-81
2022/01/05 05:23:51;;;;;;;13.55;2.10;;;3.60;99.90;;;;;;5011463;28;20120;-82
2022/01/05 05:26:17;;;;;;;16.30;1.90;;;3.60;99.90;;;;;;5013203;28;20509;-83
2022/01/05 05:28:43;;;;;;;15.57;1.73;;;4.70;99.90;;;;;;5011654;28;20132;-84
2022/01/05 05:31:08;;;;;;;12.52;1.70;;;3.60;99.90;;;;;;5011388;28;20664;-81
2022/01/05 05:33:34;;;;;;;14.68;2.67;;;3.70;99.90;;;;;;5011632;28;20516;-83
2022/01/05 05:36:00;;;;;;;17.50;2.47;;;3.70;99.90;;;;;;5011678;28;20583;-84
2022/01/05 05:38:38;;;;;;;16.08;2.22;;;3.70;99.90;;;;;;4995018;28;20120;-82
2022/01/05 05:41:04;;;;;;;11.93;2.15;;;3.70;99.90;;;;;;5011152;28;20129;-83
2022/01/05 05:43:29;;;;;;;19.98;2.33;;;3.80;99.90;;;;;;5011489;28;20129;-81
2022/01/05 05:45:55;;;;;;;10.68;2.03;;;3.70;99.90;;;;;;5010965;28;20506;-81
2022/01/05 05:48:20;;;;;;;17.20;3.13;;;3.70;99.90;;;;;;5011302;28;20071;-82
2022/01/05 05:50:46;;;;;;;30.58;5.18;;;3.70;99.90;;;;;;5011382;28;20433;-80
2022/01/05 05:53:12;;;;;;;17.48;2.58;;;3.80;99.90;;;;;;5018631;28;20124;-80
2022/01/05 05:55:38;;;;;;;17.20;2.35;;;3.80;99.90;;;;;;5030820;28;20053;-85
2022/01/05 05:58:04;;;;;;;16.88;2.20;;;3.80;99.90;;;;;;5029731;28;20065;-82
2022/01/05 06:00:29;;;;;;;16.67;2.33;;;3.90;99.90;;;;;;5030844;28;20048;-80
2022/01/05 06:02:57;;;;;;;16.63;1.88;;;3.90;99.90;;;;;;5010972;28;20061;-82
2022/01/05 06:05:23;;;;;;;16.80;3.30;;;3.90;99.90;;;;;;5031304;28;20044;-81
2022/01/05 06:07:48;;;;;;;14.23;3.08;;;3.80;99.90;;;;;;5031528;28;20033;-80
2022/01/05 06:10:14;;;;;;;18.30;2.63;;;3.80;99.90;;;;;;5031601;28;20049;-80
2022/01/05 06:12:40;;;;;;;15.48;2.55;;;3.80;99.90;;;;;;5031658;28;20380;-81
2022/01/05 06:15:06;;;;;;;11.13;1.95;;;3.70;99.90;;;;;;5032187;28;20045;-81
2022/01/05 06:17:32;;;;;;;14.77;1.80;;;3.70;99.90;;;;;;5014580;28;20060;-89
2022/01/05 06:19:57;;;;;;;22.02;3.08;;;3.80;99.90;;;;;;5031301;28;20045;-83
2022/01/05 06:22:23;;;;;;;16.52;2.15;;;3.70;99.90;;;;;;5013315;28;20132;-85
2022/01/05 06:24:52;;;;;;;16.70;2.10;;;3.80;99.90;;;;;;5031009;28;20504;-80
2022/01/05 06:27:17;;;;;;;20.00;2.50;;;4.80;99.90;;;;;;5013824;28;20143;-85
2022/01/05 06:29:43;;;;;;;9.35;1.67;;;3.90;99.90;;;;;;5031174;28;20037;-85
2022/01/05 06:32:09;;;;;;;15.50;2.03;;;3.90;99.90;;;;;;5013196;28;20037;-85
2022/01/05 06:34:35;;;;;;;15.10;2.45;;;4.00;99.90;;;;;;5031026;28;20056;-84
2022/01/05 06:37:01;;;;;;;11.93;1.27;;;4.00;99.90;;;;;;5030674;28;20451;-80
2022/01/05 06:39:26;;;;;;;9.63;1.55;;;4.10;99.90;;;;;;5030829;28;20049;-83
2022/01/05 06:41:52;;;;;;;8.68;1.50;;;4.10;99.90;;;;;;5031094;28;20050;-85
2022/01/05 06:44:20;;;;;;;6.63;1.17;;;4.10;99.90;;;;;;5030744;28;20457;-83
2022/01/05 06:46:45;;;;;;;12.18;1.65;;;4.20;99.90;;;;;;5030312;28;20492;-84
2022/01/05 06:49:11;;;;;;;12.57;1.60;;;4.20;99.90;;;;;;5030876;28;20099;-86
2022/01/05 06:51:37;;;;;;;9.00;0.95;;;4.90;99.90;;;;;;5030635;28;20076;-85
2022/01/05 06:54:02;;;;;;;7.07;0.93;;;4.10;99.90;;;;;;5016204;28;20045;-84
2022/01/05 06:56:28;;;;;;;14.20;1.50;;;3.50;99.90;;;;;;5010852;28;20054;-83
2022/01/05 06:58:54;;;;;;;8.43;0.98;;;4.10;99.90;;;;;;5014264;28;20049;-82
2022/01/05 07:01:20;;;;;;;11.95;1.40;;;4.10;99.90;;;;;;5015183;28;20065;-82
2022/01/05 07:03:45;;;;;;;5.18;0.82;;;4.10;99.90;;;;;;5013823;28;20170;-80
2022/01/05 07:06:11;;;;;;;10.27;0.90;;;4.10;99.90;;;;;;5014329;28;20085;-85
2022/01/05 07:08:37;;;;;;;6.90;1.23;;;4.00;99.90;;;;;;5014521;28;20073;-84
2022/01/05 07:11:02;;;;;;;8.77;0.80;;;4.00;99.90;;;;;;5014496;28;20046;-84
2022/01/05 07:13:34;;;;;;;8.57;1.20;;;4.00;99.90;;;;;;4997230;28;20447;-82
2022/01/05 07:16:08;;;;;;;10.02;1.52;;;4.00;99.90;;;;;;4980116;28;20072;-82
2022/01/05 07:18:41;;;;;;;7.70;0.82;;;5.00;99.90;;;;;;5014191;28;20085;-81
2022/01/05 07:21:07;;;;;;;13.02;1.40;;;4.00;99.90;;;;;;5013978;28;20568;-83
2022/01/05 07:23:33;;;;;;;13.32;2.08;;;4.10;99.90;;;;;;5014093;28;20124;-84
2022/01/05 07:25:58;;;;;;;9.63;1.40;;;4.70;99.90;;;;;;5027979;28;20100;-86
2022/01/05 07:28:24;;;;;;;11.00;1.50;;;4.10;99.90;;;;;;5014941;28;20081;-84
2022/01/05 07:30:53;;;;;;;14.40;1.42;;;4.30;99.90;;;;;;4980763;28;20042;-87
2022/01/05 07:33:18;;;;;;;13.95;1.25;;;4.10;99.90;;;;;;5014599;28;20060;-80
2022/01/05 07:35:44;;;;;;;12.63;1.42;;;4.20;99.90;;;;;;5014385;28;20057;-85
2022/01/05 07:38:19;;;;;;;15.23;2.25;;;4.20;99.90;;;;;;5013086;28;20046;-82
2022/01/05 07:40:45;;;;;;;19.40;1.42;;;4.10;99.90;;;;;;5017484;28;20136;-82
2022/01/05 07:43:10;;;;;;;12.20;1.85;;;4.30;99.90;;;;;;5021735;28;20128;-81
2022/01/05 07:45:36;;;;;;;15.60;1.73;;;5.20;99.90;;;;;;5017994;28;20037;-89
2022/01/05 07:48:05;;;;;;;16.15;1.95;;;4.30;99.90;;;;;;5021659;28;20377;-85
2022/01/05 07:50:33;;;;;;;9.75;1.40;;;4.30;99.90;;;;;;5014040;28;20080;-84
2022/01/05 07:53:05;;;;;;;11.80;2.05;;;4.30;99.90;;;;;;5018872;28;20116;-85
2022/01/05 07:55:32;;;;;;;15.68;2.17;;;3.80;99.90;;;;;;5013394;28;20527;-88
2022/01/05 07:58:03;;;;;;;13.98;1.65;;;4.80;99.90;;;;;;5030886;28;20041;-83
2022/01/05 08:00:35;;;;;;;14.30;1.40;;;4.50;99.90;;;;;;5031438;28;20065;-86
2022/01/05 08:03:01;;;;;;;10.10;1.35;;;4.50;99.90;;;;;;5032621;28;20137;-81
2022/01/05 08:05:27;;;;;;;14.40;1.58;;;5.50;99.90;;;;;;5014678;28;20140;-82
2022/01/05 08:08:00;;;;;;;13.05;1.40;;;4.70;99.90;;;;;;5023522;28;20045;-81
2022/01/05 08:10:26;;;;;;;13.55;1.95;;;5.10;99.90;;;;;;5014039;28;20046;-80
2022/01/05 08:12:51;;;;;;;13.45;2.08;;;4.70;99.90;;;;;;5013347;28;20088;-82
2022/01/05 08:15:17;;;;;;;12.60;1.25;;;4.70;99.90;;;;;;4995488;28;20056;-81
2022/01/05 08:17:43;;;;;;;10.02;1.17;;;4.40;99.90;;;;;;5013058;28;20048;-82
2022/01/05 08:20:11;;;;;;;8.90;1.20;;;4.70;99.90;;;;;;5031171;28;20045;-81
2022/01/05 08:22:45;;;;;;;13.68;1.55;;;4.70;99.90;;;;;;5034181;28;20056;-85
2022/01/05 08:25:13;;;;;;;12.97;2.10;;;4.70;99.90;;;;;;5025655;28;20533;-87
2022/01/05 08:27:46;;;;;;;9.73;1.45;;;5.10;99.90;;;;;;5014703;28;20046;-83
2022/01/05 08:30:25;;;;;;;13.63;1.80;;;4.70;99.90;;;;;;5000298;28;20107;-83
2022/01/05 08:32:52;;;;;;;16.77;2.10;;;4.70;99.90;;;;;;5034411;28;20088;-81
2022/01/05 08:35:21;;;;;;;19.02;2.15;;;4.70;99.90;;;;;;5034805;28;20067;-83
2022/01/05 08:37:48;;;;;;;15.98;2.00;;;4.70;99.90;;;;;;5018043;28;20692;-81
2022/01/05 08:40:19;;;;;;;14.68;2.30;;;4.80;99.90;;;;;;5036935;28;20492;-87
2022/01/05 08:42:45;;;;;;;10.05;2.10;;;4.90;99.90;;;;;;5035853;28;20045;-84
2022/01/05 08:45:12;;;;;;;13.55;1.45;;;4.90;99.90;;;;;;5036449;28;20041;-86
2022/01/05 08:47:37;;;;;;;9.93;1.52;;;4.90;99.90;;;;;;5036381;28;20403;-90
2022/01/05 08:50:04;;;;;;;9.52;1.30;;;5.70;99.90;;;;;;5035518;28;20516;-87
2022/01/05 08:52:30;;;;;;;14.82;1.80;;;5.00;99.90;;;;;;5034385;28;20464;-83
2022/01/05 08:54:56;;;;;;;13.93;1.77;;;5.10;99.90;;;;;;5034798;28;20045;-83
2022/01/05 08:57:22;;;;;;;19.45;2.95;;;5.10;99.90;;;;;;5033420;28;20053;-94
2022/01/05 08:59:51;;;;;;;14.43;1.92;;;5.20;99.90;;;;;;5035162;28;20049;-82
2022/01/05 09:02:17;;;;;;;19.60;2.35;;;5.20;99.90;;;;;;5036072;28;20450;-88
2022/01/05 09:04:43;;;;;;;14.73;1.63;;;6.00;99.90;;;;;;5035249;28;20076;-89
2022/01/05 09:07:10;;;;;;;12.75;1.73;;;5.30;99.90;;;;;;5035177;28;20037;-84
2022/01/05 09:09:36;;;;;;;13.57;1.73;;;4.70;99.90;;;;;;5034487;28;20125;-84
2022/01/05 09:12:03;;;;;;;12.75;1.33;;;6.20;99.90;;;;;;5035196;28;20073;-84
2022/01/05 09:14:28;;;;;;;16.35;2.05;;;5.20;99.90;;;;;;5001566;28;20542;-84
2022/01/05 09:16:54;;;;;;;16.08;1.80;;;5.20;99.90;;;;;;5035802;28;20045;-83
2022/01/05 09:19:20;;;;;;;9.82;2.00;;;5.20;99.90;;;;;;5036798;28;20523;-83
2022/01/05 09:21:48;;;;;;;10.35;1.67;;;5.90;99.90;;;;;;5035065;28;20041;-85
2022/01/05 09:24:30;;;;;;;14.55;1.40;;;5.10;99.90;;;;;;5036409;28;20469;-86
2022/01/05 09:26:57;;;;;;;10.90;2.00;;;5.10;99.90;;;;;;5016818;28;20121;-87
2022/01/05 09:29:23;;;;;;;10.45;1.65;;;5.10;99.90;;;;;;5016222;28;20129;-86
2022/01/05 09:31:50;;;;;;;16.50;2.10;;;5.20;99.90;;;;;;5016215;28;20045;-85
2022/01/05 09:34:18;;;;;;;21.13;2.42;;;6.10;99.90;;;;;;5017043;28;20045;-82
2022/01/05 09:36:48;;;;;;;15.75;1.80;;;5.90;99.90;;;;;;5017362;28;20061;-85
2022/01/05 09:42:05;;;;;;;13.82;1.77;;;6.40;99.90;;;;;;5016301;28;20068;-88
2022/01/05 09:44:39;;;;;;;17.05;1.90;;;5.40;99.90;;;;;;5015860;28;20149;-85
2022/01/05 09:47:14;;;;;;;15.93;2.78;;;5.50;99.90;;;;;;4997035;28;20050;-83
2022/01/05 09:50:10;;;;;;;18.67;2.28;;;5.60;99.90;;;;;;5013870;28;20060;-83
2022/01/05 09:52:38;;;;;;;19.98;2.78;;;5.70;99.90;;;;;;4975378;28;20059;-86
2022/01/05 09:55:19;;;;;;;;;;;;;;;;;;;;;
2022/01/05 09:57:46;;;;;;;17.08;2.90;;;5.80;99.90;;;;;;4965509;28;20054;-88
2022/01/05 10:00:24;;;;;;;24.85;2.75;;;6.70;99.90;;;;;;4993808;28;20043;-85
2022/01/05 10:02:55;;;;;;;11.93;2.33;;;6.60;99.90;;;;;;4960530;28;20105;-85
2022/01/05 10:05:21;;;;;;;22.55;3.15;;;5.80;99.90;;;;;;4991479;28;20050;-87
2022/01/05 10:07:47;;;;;;;24.17;2.60;;;6.40;99.90;;;;;;4975743;28;20050;-84
2022/01/05 10:10:24;;;;;;;20.00;2.40;;;5.90;99.90;;;;;;4981826;28;20051;-85
2022/01/05 10:12:51;;;;;;;19.02;3.20;;;6.80;99.90;;;;;;4972065;28;20053;-88
2022/01/05 10:15:20;;;;;;;25.25;2.95;;;6.70;99.90;;;;;;4974554;28;20086;-94
2022/01/05 10:17:46;;;;;;;23.17;2.10;;;6.00;99.90;;;;;;4972262;28;20565;-83
2022/01/05 10:20:13;;;;;;;22.75;3.47;;;6.10;99.90;;;;;;4956361;28;20054;-83
2022/01/05 10:22:47;;;;;;;12.35;1.52;;;6.90;99.90;;;;;;4972045;28;20062;-85
2022/01/05 10:25:20;;;;;;;11.70;1.77;;;6.70;99.90;;;;;;4963424;28;20544;-85
2022/01/05 10:28:09;;;;;;;12.93;1.52;;;6.40;99.90;;;;;;4991277;28;20050;-85
2022/01/05 10:30:45;;;;;;;17.17;1.63;;;6.50;99.90;;;;;;5028295;28;20064;-86
2022/01/05 10:33:33;;;;;;;14.63;1.95;;;6.50;99.90;;;;;;5012869;28;20042;-88
2022/01/05 10:36:06;;;;;;;19.70;2.38;;;7.00;99.90;;;;;;5012795;28;20042;-92
2022/01/05 10:38:32;;;;;;;18.83;2.10;;;7.10;99.90;;;;;;5014982;28;20046;-83
2022/01/05 10:40:57;;;;;;;12.98;2.40;;;6.80;99.90;;;;;;5014694;28;20507;-84
2022/01/05 10:43:35;;;;;;;18.70;2.35;;;7.10;99.90;;;;;;5011660;28;20054;-88
2022/01/05 10:46:07;;;;;;;19.83;2.33;;;7.00;99.90;;;;;;4994930;28;20130;-84
2022/01/05 10:48:39;;;;;;;19.90;2.70;;;7.70;99.90;;;;;;5011587;28;20058;-87
2022/01/05 10:51:10;;;;;;;26.88;2.60;;;7.20;99.90;;;;;;5012105;28;20101;-87
2022/01/05 10:53:38;;;;;;;17.33;2.97;;;7.30;99.90;;;;;;5012237;28;20049;-86
2022/01/05 10:56:04;;;;;;;20.80;2.78;;;7.40;99.90;;;;;;5011831;28;20056;-85
2022/01/05 10:58:51;;;;;;;18.10;2.72;;;7.70;99.90;;;;;;5020040;23;20042;-87
2022/01/05 11:01:42;;;;;;;23.10;2.33;;;7.50;99.90;;;;;;4992862;28;20058;-86
2022/01/05 11:04:33;;;;;;;23.35;3.10;;;7.50;99.90;;;;;;5012122;28;20072;-88
2022/01/05 11:07:03;;;;;;;17.67;2.65;;;7.60;99.90;;;;;;4999963;28;20038;-89
2022/01/05 11:09:32;;;;;;;27.40;2.72;;;7.60;99.90;;;;;;5023848;28;20061;-84
2022/01/05 11:11:59;;;;;;;21.63;3.45;;;7.60;99.90;;;;;;5035469;28;20049;-88
2022/01/05 11:14:34;;;;;;;22.13;3.50;;;7.90;99.90;;;;;;5026954;28;20053;-88
2022/01/05 11:17:07;;;;;;;24.27;3.85;;;7.50;99.90;;;;;;4997253;28;20081;-89
2022/01/05 11:19:52;;;;;;;19.88;3.63;;;7.60;99.90;;;;;;5012275;28;20056;-84
2022/01/05 11:22:18;;;;;;;;;;;8.00;99.90;;;;;;5012767;28;20496;-92
2022/01/05 11:25:11;;;;;;;22.85;2.63;;;7.40;99.90;;;;;;5012717;28;19925;-83
2022/01/05 11:27:37;;;;;;;26.50;2.75;;;7.50;99.90;;;;;;4993825;28;20042;-85
2022/01/05 11:30:04;;;;;;;19.48;3.55;;;7.60;99.90;;;;;;5012639;28;20060;-88
2022/01/05 11:32:31;;;;;;;23.45;2.55;;;7.70;99.90;;;;;;5012667;28;20054;-89
2022/01/05 11:34:59;;;;;;;16.33;2.70;;;7.80;99.90;;;;;;4978483;28;20513;-87
2022/01/05 11:37:35;;;;;;;22.70;3.45;;;7.80;99.90;;;;;;5003060;28;20081;-89
2022/01/05 11:40:04;;;;;;;18.88;3.78;;;8.50;99.90;;;;;;5030940;28;20056;-85
2022/01/05 11:42:34;;;;;;;21.98;2.92;;;7.70;99.90;;;;;;5031430;28;20064;-84
2022/01/05 11:45:00;;;;;;;25.50;3.08;;;8.30;99.90;;;;;;5034225;28;20053;-84
2022/01/05 11:47:30;;;;;;;25.00;4.20;;;7.80;99.90;;;;;;5034707;28;20064;-91
2022/01/05 11:50:23;;;;;;;18.58;2.95;;;7.80;99.90;;;;;;5035451;28;20107;-86
2022/01/05 11:53:08;;;;;;;23.45;2.97;;;7.60;99.90;;;;;;5035669;28;20053;-90
2022/01/05 11:55:59;;;;;;;18.90;2.17;;;7.40;99.90;;;;;;5034343;28;20396;-90
2022/01/05 11:58:30;;;;;;;16.10;2.47;;;7.50;99.90;;;;;;5029571;28;20144;-83
2022/01/05 12:01:17;;;;;;;19.75;3.10;;;7.60;99.90;;;;;;5031527;28;20049;-90
2022/01/05 12:03:57;;;;;;;12.88;2.05;;;7.70;99.90;;;;;;4996795;28;20042;-89
2022/01/05 12:06:31;;;;;;;20.15;2.25;;;7.70;99.90;;;;;;5011577;28;20054;-88
2022/01/05 12:09:00;;;;;;;14.50;2.50;;;7.80;99.90;;;;;;4997177;28;20485;-93
2022/01/05 12:11:29;;;;;;;13.95;2.08;;;7.90;99.90;;;;;;4998458;28;20409;-85
2022/01/05 12:13:57;;;;;;;15.98;2.40;;;7.90;99.90;;;;;;5000029;28;20085;-96
2022/01/05 12:16:23;;;;;;;29.35;3.20;;;7.80;99.90;;;;;;5000983;28;20146;-87
2022/01/05 12:19:07;;;;;;;16.98;3.03;;;8.20;99.90;;;;;;4963689;28;20069;-88
2022/01/05 12:21:45;;;;;;;22.05;3.03;;;7.80;99.90;;;;;;4978467;28;20050;-86
2022/01/05 12:24:12;;;;;;;14.90;2.88;;;7.80;99.90;;;;;;4979060;28;20078;-91
2022/01/05 12:26:44;;;;;;;20.00;3.00;;;7.80;99.90;;;;;;4997074;28;20496;-83
2022/01/05 12:29:34;;;;;;;25.38;2.67;;;7.70;99.90;;;;;;4978902;28;20077;-85
2022/01/05 12:32:00;;;;;;;25.40;2.90;;;7.60;99.90;;;;;;5018044;28;20493;-88
2022/01/05 12:34:53;;;;;;;20.00;2.75;;;7.60;99.90;;;;;;4998008;28;20050;-83
2022/01/05 12:37:40;;;;;;;21.08;2.58;;;7.60;99.90;;;;;;5026984;28;20108;-85
2022/01/05 12:40:24;;;;;;;24.80;3.28;;;7.70;99.90;;;;;;5017767;28;20059;-85
2022/01/05 12:43:10;;;;;;;18.17;2.70;;;7.70;99.90;;;;;;5017321;28;20057;-89
2022/01/05 12:45:48;;;;;;;22.38;2.42;;;7.70;99.90;;;;;;5013036;28;20180;-86
2022/01/05 12:48:33;;;;;;;14.70;2.97;;;7.60;99.90;;;;;;4998906;28;20435;-85
2022/01/05 12:51:34;;;;;;;16.10;3.15;;;7.60;99.90;;;;;;5012896;28;20057;-90
2022/01/05 12:54:07;;;;;;;23.95;3.63;;;7.50;99.90;;;;;;4976464;28;20060;-85
2022/01/05 12:56:47;;;;;;;22.15;2.90;;;7.40;99.90;;;;;;4991119;28;20047;-87
2022/01/05 12:59:16;;;;;;;22.13;3.03;;;7.30;99.90;;;;;;4977899;28;20054;-90
2022/01/05 13:01:44;;;;;;;19.42;2.50;;;7.30;99.90;;;;;;4992551;28;20047;-90
2022/01/05 13:04:13;;;;;;;20.27;3.13;;;7.60;99.90;;;;;;4985646;28;20534;-86